sensor_id;sensor_type;location;lat;lon;timestamp;temperature;humidity
67279;DHT22;54193;53.746;10.058;2023-09-19T00:00:39;16.45;88.43
67279;DHT22;54193;53.746;10.058;2023-09-19T00:03:26;16.36;88.49
67279;DHT22;54193;53.746;10.058;2023-09-19T00:06:13;16.32;88.71
67279;DHT22;54193;53.746;10.058;2023-09-19T00:09:01;16.25;88.65
67279;DHT22;54193;53.746;10.058;2023-09-19T00:11:49;16.25;88.74
67279;DHT22;54193;53.746;10.058;2023-09-19T00:14:35;16.22;88.77
67279;DHT22;54193;53.746;10.058;2023-09-19T00:17:23;16.25;88.77
67279;DHT22;54193;53.746;10.058;2023-09-19T00:20:11;16.29;88.63
67279;DHT22;54193;53.746;10.058;2023-09-19T00:22:58;16.26;88.65
67279;DHT22;54193;53.746;10.058;2023-09-19T00:25:44;16.25;88.56
67279;DHT22;54193;53.746;10.058;2023-09-19T00:28:30;16.22;88.51
67279;DHT22;54193;53.746;10.058;2023-09-19T00:31:17;16.17;88.96
67279;DHT22;54193;53.746;10.058;2023-09-19T00:34:03;16.15;88.90
67279;DHT22;54193;53.746;10.058;2023-09-19T00:36:51;16.17;88.84
67279;DHT22;54193;53.746;10.058;2023-09-19T00:39:38;16.20;88.84
67279;DHT22;54193;53.746;10.058;2023-09-19T00:42:24;16.13;89.16
67279;DHT22;54193;53.746;10.058;2023-09-19T00:45:13;16.08;89.17
67279;DHT22;54193;53.746;10.058;2023-09-19T00:48:01;16.05;89.35
67279;DHT22;54193;53.746;10.058;2023-09-19T00:50:49;16.00;89.51
67279;DHT22;54193;53.746;10.058;2023-09-19T00:53:35;15.98;89.48
67279;DHT22;54193;53.746;10.058;2023-09-19T00:56:20;15.97;89.60
67279;DHT22;54193;53.746;10.058;2023-09-19T00:59:06;15.96;89.67
67279;DHT22;54193;53.746;10.058;2023-09-19T01:01:53;15.97;89.75
67279;DHT22;54193;53.746;10.058;2023-09-19T01:04:40;16.08;89.42
67279;DHT22;54193;53.746;10.058;2023-09-19T01:07:29;16.14;89.67
67279;DHT22;54193;53.746;10.058;2023-09-19T01:10:18;16.14;89.32
67279;DHT22;54193;53.746;10.058;2023-09-19T01:13:22;16.10;89.47
67279;DHT22;54193;53.746;10.058;2023-09-19T01:16:31;16.03;89.59
67279;DHT22;54193;53.746;10.058;2023-09-19T01:22:59;15.94;90.06
67279;DHT22;54193;53.746;10.058;2023-09-19T01:26:07;15.83;90.08
67279;DHT22;54193;53.746;10.058;2023-09-19T01:32:19;15.82;90.26
67279;DHT22;54193;53.746;10.058;2023-09-19T01:35:07;15.77;90.27
67279;DHT22;54193;53.746;10.058;2023-09-19T01:37:57;15.73;90.41
67279;DHT22;54193;53.746;10.058;2023-09-19T01:40:49;15.66;90.57
67279;DHT22;54193;53.746;10.058;2023-09-19T01:43:42;15.69;90.68
67279;DHT22;54193;53.746;10.058;2023-09-19T01:46:36;15.62;90.60
67279;DHT22;54193;53.746;10.058;2023-09-19T01:49:44;15.63;90.67
67279;DHT22;54193;53.746;10.058;2023-09-19T01:52:36;15.59;90.56
67279;DHT22;54193;53.746;10.058;2023-09-19T01:55:26;15.59;90.56
67279;DHT22;54193;53.746;10.058;2023-09-19T01:58:21;15.49;90.64
67279;DHT22;54193;53.746;10.058;2023-09-19T02:01:12;15.59;90.54
67279;DHT22;54193;53.746;10.058;2023-09-19T02:04:01;15.66;90.27
67279;DHT22;54193;53.746;10.058;2023-09-19T02:06:46;15.67;90.28
67279;DHT22;54193;53.746;10.058;2023-09-19T02:09:34;15.62;90.20
67279;DHT22;54193;53.746;10.058;2023-09-19T02:12:24;15.56;90.27
67279;DHT22;54193;53.746;10.058;2023-09-19T02:15:10;15.45;90.34
67279;DHT22;54193;53.746;10.058;2023-09-19T02:17:55;15.43;90.19
67279;DHT22;54193;53.746;10.058;2023-09-19T02:20:42;15.45;90.48
67279;DHT22;54193;53.746;10.058;2023-09-19T02:23:28;15.36;90.39
67279;DHT22;54193;53.746;10.058;2023-09-19T02:26:15;15.40;90.06
67279;DHT22;54193;53.746;10.058;2023-09-19T02:29:01;15.36;90.05
67279;DHT22;54193;53.746;10.058;2023-09-19T02:31:50;15.31;90.16
67279;DHT22;54193;53.746;10.058;2023-09-19T02:34:36;15.27;90.13
67279;DHT22;54193;53.746;10.058;2023-09-19T02:37:21;15.24;90.04
67279;DHT22;54193;53.746;10.058;2023-09-19T02:40:07;15.17;90.11
67279;DHT22;54193;53.746;10.058;2023-09-19T02:43:04;15.12;89.91
67279;DHT22;54193;53.746;10.058;2023-09-19T02:45:50;15.11;89.95
67279;DHT22;54193;53.746;10.058;2023-09-19T02:48:36;15.18;89.65
67279;DHT22;54193;53.746;10.058;2023-09-19T02:51:21;15.22;89.30
67279;DHT22;54193;53.746;10.058;2023-09-19T02:54:07;15.18;89.43
67279;DHT22;54193;53.746;10.058;2023-09-19T02:56:53;15.08;89.62
67279;DHT22;54193;53.746;10.058;2023-09-19T02:59:39;15.10;89.66
67279;DHT22;54193;53.746;10.058;2023-09-19T03:02:27;15.02;89.95
67279;DHT22;54193;53.746;10.058;2023-09-19T03:05:13;15.04;90.00
67279;DHT22;54193;53.746;10.058;2023-09-19T03:08:00;15.01;90.26
67279;DHT22;54193;53.746;10.058;2023-09-19T03:10:46;15.11;90.12
67279;DHT22;54193;53.746;10.058;2023-09-19T03:13:33;15.28;89.50
67279;DHT22;54193;53.746;10.058;2023-09-19T03:16:19;15.38;89.14
67279;DHT22;54193;53.746;10.058;2023-09-19T03:19:07;15.43;88.87
67279;DHT22;54193;53.746;10.058;2023-09-19T03:21:52;15.48;88.61
67279;DHT22;54193;53.746;10.058;2023-09-19T03:24:38;15.46;88.80
67279;DHT22;54193;53.746;10.058;2023-09-19T03:27:24;15.40;88.81
67279;DHT22;54193;53.746;10.058;2023-09-19T03:30:10;15.42;88.71
67279;DHT22;54193;53.746;10.058;2023-09-19T03:32:58;15.42;88.58
67279;DHT22;54193;53.746;10.058;2023-09-19T03:35:52;15.42;88.46
67279;DHT22;54193;53.746;10.058;2023-09-19T03:38:37;15.36;88.58
67279;DHT22;54193;53.746;10.058;2023-09-19T03:41:23;15.34;88.40
67279;DHT22;54193;53.746;10.058;2023-09-19T03:44:09;15.22;88.04
67279;DHT22;54193;53.746;10.058;2023-09-19T03:46:54;15.17;87.94
67279;DHT22;54193;53.746;10.058;2023-09-19T03:49:41;15.12;88.42
67279;DHT22;54193;53.746;10.058;2023-09-19T03:52:27;14.98;88.32
67279;DHT22;54193;53.746;10.058;2023-09-19T03:55:13;15.07;88.52
67279;DHT22;54193;53.746;10.058;2023-09-19T03:57:58;15.12;88.28
67279;DHT22;54193;53.746;10.058;2023-09-19T04:00:44;15.11;87.90
67279;DHT22;54193;53.746;10.058;2023-09-19T04:03:29;15.08;87.98
67279;DHT22;54193;53.746;10.058;2023-09-19T04:06:20;15.05;87.15
67279;DHT22;54193;53.746;10.058;2023-09-19T04:09:06;15.10;86.24
67279;DHT22;54193;53.746;10.058;2023-09-19T04:11:52;15.01;86.00
67279;DHT22;54193;53.746;10.058;2023-09-19T04:14:38;15.04;85.42
67279;DHT22;54193;53.746;10.058;2023-09-19T04:17:24;15.01;85.36
67279;DHT22;54193;53.746;10.058;2023-09-19T04:20:10;14.94;85.82
67279;DHT22;54193;53.746;10.058;2023-09-19T04:22:57;14.90;85.51
67279;DHT22;54193;53.746;10.058;2023-09-19T04:25:45;14.91;85.97
67279;DHT22;54193;53.746;10.058;2023-09-19T04:28:31;15.00;86.22
67279;DHT22;54193;53.746;10.058;2023-09-19T04:31:18;15.00;86.13
67279;DHT22;54193;53.746;10.058;2023-09-19T04:34:05;15.10;85.53
67279;DHT22;54193;53.746;10.058;2023-09-19T04:36:51;15.04;85.67
67279;DHT22;54193;53.746;10.058;2023-09-19T04:39:36;14.94;85.11
67279;DHT22;54193;53.746;10.058;2023-09-19T04:42:22;14.83;85.25
67279;DHT22;54193;53.746;10.058;2023-09-19T04:45:10;14.74;84.69
67279;DHT22;54193;53.746;10.058;2023-09-19T04:47:56;14.66;85.37
67279;DHT22;54193;53.746;10.058;2023-09-19T04:50:41;14.56;85.44
67279;DHT22;54193;53.746;10.058;2023-09-19T04:53:28;14.53;85.02
67279;DHT22;54193;53.746;10.058;2023-09-19T04:56:14;14.45;85.57
67279;DHT22;54193;53.746;10.058;2023-09-19T04:59:00;14.40;85.26
67279;DHT22;54193;53.746;10.058;2023-09-19T05:01:46;14.35;85.26
67279;DHT22;54193;53.746;10.058;2023-09-19T05:04:32;14.30;85.69
67279;DHT22;54193;53.746;10.058;2023-09-19T05:07:17;14.25;85.51
67279;DHT22;54193;53.746;10.058;2023-09-19T05:10:03;14.19;85.55
67279;DHT22;54193;53.746;10.058;2023-09-19T05:12:53;14.12;85.76
67279;DHT22;54193;53.746;10.058;2023-09-19T05:15:39;14.18;85.71
67279;DHT22;54193;53.746;10.058;2023-09-19T05:18:25;14.25;85.42
67279;DHT22;54193;53.746;10.058;2023-09-19T05:21:11;14.25;85.37
67279;DHT22;54193;53.746;10.058;2023-09-19T05:23:57;14.19;85.48
67279;DHT22;54193;53.746;10.058;2023-09-19T05:26:43;14.07;85.79
67279;DHT22;54193;53.746;10.058;2023-09-19T05:29:29;13.98;85.82
67279;DHT22;54193;53.746;10.058;2023-09-19T05:32:15;13.91;86.28
67279;DHT22;54193;53.746;10.058;2023-09-19T05:35:01;13.90;86.29
67279;DHT22;54193;53.746;10.058;2023-09-19T05:37:48;13.90;85.93
67279;DHT22;54193;53.746;10.058;2023-09-19T05:40:36;13.95;85.66
67279;DHT22;54193;53.746;10.058;2023-09-19T05:43:26;13.91;85.40
67279;DHT22;54193;53.746;10.058;2023-09-19T05:46:12;13.92;85.61
67279;DHT22;54193;53.746;10.058;2023-09-19T05:48:57;13.95;85.07
67279;DHT22;54193;53.746;10.058;2023-09-19T05:51:43;13.92;85.46
67279;DHT22;54193;53.746;10.058;2023-09-19T05:54:29;13.95;85.38
67279;DHT22;54193;53.746;10.058;2023-09-19T05:57:14;14.05;84.95
67279;DHT22;54193;53.746;10.058;2023-09-19T06:00:00;14.11;84.72
67279;DHT22;54193;53.746;10.058;2023-09-19T06:02:50;14.17;84.87
67279;DHT22;54193;53.746;10.058;2023-09-19T06:05:35;14.28;84.49
67279;DHT22;54193;53.746;10.058;2023-09-19T06:08:21;14.36;84.69
67279;DHT22;54193;53.746;10.058;2023-09-19T06:11:07;14.57;84.04
67279;DHT22;54193;53.746;10.058;2023-09-19T06:13:52;14.70;83.18
67279;DHT22;54193;53.746;10.058;2023-09-19T06:16:38;14.84;82.93
67279;DHT22;54193;53.746;10.058;2023-09-19T06:19:24;14.85;82.85
67279;DHT22;54193;53.746;10.058;2023-09-19T06:22:11;14.90;82.74
67279;DHT22;54193;53.746;10.058;2023-09-19T06:24:57;14.92;82.76
67279;DHT22;54193;53.746;10.058;2023-09-19T06:27:43;14.92;82.62
67279;DHT22;54193;53.746;10.058;2023-09-19T06:30:29;14.92;82.99
67279;DHT22;54193;53.746;10.058;2023-09-19T06:33:16;14.92;82.92
67279;DHT22;54193;53.746;10.058;2023-09-19T06:36:02;14.92;82.66
67279;DHT22;54193;53.746;10.058;2023-09-19T06:38:49;14.92;82.98
67279;DHT22;54193;53.746;10.058;2023-09-19T06:41:37;14.94;82.47
67279;DHT22;54193;53.746;10.058;2023-09-19T06:44:24;15.01;82.53
67279;DHT22;54193;53.746;10.058;2023-09-19T06:47:10;14.97;82.67
67279;DHT22;54193;53.746;10.058;2023-09-19T06:49:56;15.00;82.55
67279;DHT22;54193;53.746;10.058;2023-09-19T06:52:41;15.12;82.31
67279;DHT22;54193;53.746;10.058;2023-09-19T06:55:27;15.07;82.32
67279;DHT22;54193;53.746;10.058;2023-09-19T06:58:13;15.08;81.57
67279;DHT22;54193;53.746;10.058;2023-09-19T07:00:58;15.19;81.40
67279;DHT22;54193;53.746;10.058;2023-09-19T07:03:44;15.24;81.50
67279;DHT22;54193;53.746;10.058;2023-09-19T07:06:31;15.28;81.75
67279;DHT22;54193;53.746;10.058;2023-09-19T07:09:17;15.28;81.32
67279;DHT22;54193;53.746;10.058;2023-09-19T07:12:02;15.27;81.16
67279;DHT22;54193;53.746;10.058;2023-09-19T07:14:48;15.24;81.55
67279;DHT22;54193;53.746;10.058;2023-09-19T07:17:34;15.32;81.07
67279;DHT22;54193;53.746;10.058;2023-09-19T07:20:20;15.40;80.82
67279;DHT22;54193;53.746;10.058;2023-09-19T07:23:05;15.48;80.86
67279;DHT22;54193;53.746;10.058;2023-09-19T07:25:51;15.49;80.29
67279;DHT22;54193;53.746;10.058;2023-09-19T07:28:37;15.57;80.44
67279;DHT22;54193;53.746;10.058;2023-09-19T07:31:23;15.70;80.66
67279;DHT22;54193;53.746;10.058;2023-09-19T07:34:08;15.71;80.15
67279;DHT22;54193;53.746;10.058;2023-09-19T07:36:55;15.74;80.23
67279;DHT22;54193;53.746;10.058;2023-09-19T07:39:42;15.74;80.71
67279;DHT22;54193;53.746;10.058;2023-09-19T07:42:30;15.74;80.51
67279;DHT22;54193;53.746;10.058;2023-09-19T07:45:16;15.80;80.49
67279;DHT22;54193;53.746;10.058;2023-09-19T07:48:02;15.77;80.17
67279;DHT22;54193;53.746;10.058;2023-09-19T07:50:51;15.71;80.85
67279;DHT22;54193;53.746;10.058;2023-09-19T07:53:37;15.67;80.61
67279;DHT22;54193;53.746;10.058;2023-09-19T07:56:23;15.65;80.75
67279;DHT22;54193;53.746;10.058;2023-09-19T07:59:08;15.59;80.65
67279;DHT22;54193;53.746;10.058;2023-09-19T08:01:57;15.65;81.04
67279;DHT22;54193;53.746;10.058;2023-09-19T08:04:43;15.66;81.14
67279;DHT22;54193;53.746;10.058;2023-09-19T08:07:29;15.66;80.84
67279;DHT22;54193;53.746;10.058;2023-09-19T08:10:15;15.80;79.68
67279;DHT22;54193;53.746;10.058;2023-09-19T08:13:01;15.94;79.44
67279;DHT22;54193;53.746;10.058;2023-09-19T08:15:47;15.82;78.34
67279;DHT22;54193;53.746;10.058;2023-09-19T08:18:33;15.97;78.52
67279;DHT22;54193;53.746;10.058;2023-09-19T08:21:19;16.11;78.23
67279;DHT22;54193;53.746;10.058;2023-09-19T08:24:04;16.08;77.79
67279;DHT22;54193;53.746;10.058;2023-09-19T08:26:51;16.20;76.84
67279;DHT22;54193;53.746;10.058;2023-09-19T08:29:37;16.29;76.96
67279;DHT22;54193;53.746;10.058;2023-09-19T08:32:22;16.25;76.78
67279;DHT22;54193;53.746;10.058;2023-09-19T08:35:10;16.26;77.39
67279;DHT22;54193;53.746;10.058;2023-09-19T08:37:57;16.25;77.39
67279;DHT22;54193;53.746;10.058;2023-09-19T08:40:42;16.15;77.13
67279;DHT22;54193;53.746;10.058;2023-09-19T08:43:29;16.18;77.90
67279;DHT22;54193;53.746;10.058;2023-09-19T08:46:15;16.10;78.47
67279;DHT22;54193;53.746;10.058;2023-09-19T08:49:10;16.04;78.54
67279;DHT22;54193;53.746;10.058;2023-09-19T08:55:12;16.15;79.75
67279;DHT22;54193;53.746;10.058;2023-09-19T08:58:03;16.03;79.22
67279;DHT22;54193;53.746;10.058;2023-09-19T09:00:53;16.08;80.03
67279;DHT22;54193;53.746;10.058;2023-09-19T09:03:40;16.00;78.86
67279;DHT22;54193;53.746;10.058;2023-09-19T09:06:29;16.08;78.71
67279;DHT22;54193;53.746;10.058;2023-09-19T09:09:15;16.21;79.17
67279;DHT22;54193;53.746;10.058;2023-09-19T09:12:02;16.28;78.91
67279;DHT22;54193;53.746;10.058;2023-09-19T09:14:48;16.28;78.55
67279;DHT22;54193;53.746;10.058;2023-09-19T09:17:35;16.36;78.45
67279;DHT22;54193;53.746;10.058;2023-09-19T09:20:21;16.31;78.04
67279;DHT22;54193;53.746;10.058;2023-09-19T09:23:07;16.25;77.79
67279;DHT22;54193;53.746;10.058;2023-09-19T09:25:53;16.31;78.02
67279;DHT22;54193;53.746;10.058;2023-09-19T09:28:46;16.36;77.65
67279;DHT22;54193;53.746;10.058;2023-09-19T09:31:33;16.45;76.80
67279;DHT22;54193;53.746;10.058;2023-09-19T09:34:19;16.59;76.52
67279;DHT22;54193;53.746;10.058;2023-09-19T09:37:06;16.73;76.04
67279;DHT22;54193;53.746;10.058;2023-09-19T09:39:57;16.77;75.43
67279;DHT22;54193;53.746;10.058;2023-09-19T09:42:43;16.86;74.78
67279;DHT22;54193;53.746;10.058;2023-09-19T09:45:32;17.11;74.83
67279;DHT22;54193;53.746;10.058;2023-09-19T09:48:24;17.07;73.41
67279;DHT22;54193;53.746;10.058;2023-09-19T09:51:29;17.04;74.49
67279;DHT22;54193;53.746;10.058;2023-09-19T09:54:17;17.38;72.83
67279;DHT22;54193;53.746;10.058;2023-09-19T09:57:08;17.56;73.78
67279;DHT22;54193;53.746;10.058;2023-09-19T10:00:05;17.66;71.93
67279;DHT22;54193;53.746;10.058;2023-09-19T10:02:57;17.69;72.08
67279;DHT22;54193;53.746;10.058;2023-09-19T10:05:44;17.78;72.17
67279;DHT22;54193;53.746;10.058;2023-09-19T10:08:30;17.80;71.28
67279;DHT22;54193;53.746;10.058;2023-09-19T10:11:16;17.86;72.11
67279;DHT22;54193;53.746;10.058;2023-09-19T10:14:04;17.68;70.29
67279;DHT22;54193;53.746;10.058;2023-09-19T10:16:53;17.58;71.59
67279;DHT22;54193;53.746;10.058;2023-09-19T10:19:46;17.72;71.21
67279;DHT22;54193;53.746;10.058;2023-09-19T10:22:38;17.68;69.05
67279;DHT22;54193;53.746;10.058;2023-09-19T10:25:28;17.61;69.76
67279;DHT22;54193;53.746;10.058;2023-09-19T10:28:17;17.75;69.24
67279;DHT22;54193;53.746;10.058;2023-09-19T10:31:07;17.82;69.37
67279;DHT22;54193;53.746;10.058;2023-09-19T10:33:55;17.76;68.80
67279;DHT22;54193;53.746;10.058;2023-09-19T10:36:45;18.04;68.92
67279;DHT22;54193;53.746;10.058;2023-09-19T10:39:32;18.27;67.67
67279;DHT22;54193;53.746;10.058;2023-09-19T10:42:20;18.18;68.32
67279;DHT22;54193;53.746;10.058;2023-09-19T10:45:06;18.09;67.75
67279;DHT22;54193;53.746;10.058;2023-09-19T10:47:59;18.00;66.84
67279;DHT22;54193;53.746;10.058;2023-09-19T10:51:07;17.91;66.97
67279;DHT22;54193;53.746;10.058;2023-09-19T10:54:02;18.03;66.84
67279;DHT22;54193;53.746;10.058;2023-09-19T10:56:50;17.96;66.46
67279;DHT22;54193;53.746;10.058;2023-09-19T11:00:03;17.90;67.58
67279;DHT22;54193;53.746;10.058;2023-09-19T11:06:14;18.28;67.02
67279;DHT22;54193;53.746;10.058;2023-09-19T11:09:03;18.23;66.11
67279;DHT22;54193;53.746;10.058;2023-09-19T11:12:00;18.26;66.29
67279;DHT22;54193;53.746;10.058;2023-09-19T11:14:47;18.40;66.72
67279;DHT22;54193;53.746;10.058;2023-09-19T11:17:40;18.44;66.03
67279;DHT22;54193;53.746;10.058;2023-09-19T11:20:32;18.28;66.25
67279;DHT22;54193;53.746;10.058;2023-09-19T11:23:27;18.16;66.50
67279;DHT22;54193;53.746;10.058;2023-09-19T11:26:42;18.09;66.71
67279;DHT22;54193;53.746;10.058;2023-09-19T11:29:39;18.45;66.97
67279;DHT22;54193;53.746;10.058;2023-09-19T11:41:38;18.45;66.00
67279;DHT22;54193;53.746;10.058;2023-09-19T11:47:17;18.73;66.30
67279;DHT22;54193;53.746;10.058;2023-09-19T11:50:05;18.65;66.11
67279;DHT22;54193;53.746;10.058;2023-09-19T11:52:53;18.62;66.41
67279;DHT22;54193;53.746;10.058;2023-09-19T11:55:41;18.56;66.45
67279;DHT22;54193;53.746;10.058;2023-09-19T11:58:30;18.64;65.57
67279;DHT22;54193;53.746;10.058;2023-09-19T12:01:25;18.34;65.62
67279;DHT22;54193;53.746;10.058;2023-09-19T12:04:14;18.47;65.46
67279;DHT22;54193;53.746;10.058;2023-09-19T12:07:00;18.41;64.90
67279;DHT22;54193;53.746;10.058;2023-09-19T12:09:48;18.37;64.90
67279;DHT22;54193;53.746;10.058;2023-09-19T12:12:34;18.24;65.37
67279;DHT22;54193;53.746;10.058;2023-09-19T12:15:23;18.20;65.25
67279;DHT22;54193;53.746;10.058;2023-09-19T12:18:29;18.26;65.00
67279;DHT22;54193;53.746;10.058;2023-09-19T12:24:12;18.79;64.75
67279;DHT22;54193;53.746;10.058;2023-09-19T12:27:03;18.65;64.67
67279;DHT22;54193;53.746;10.058;2023-09-19T12:29:52;18.45;64.74
67279;DHT22;54193;53.746;10.058;2023-09-19T12:32:45;18.44;64.93
67279;DHT22;54193;53.746;10.058;2023-09-19T12:35:33;18.62;65.24
67279;DHT22;54193;53.746;10.058;2023-09-19T12:38:26;18.77;64.33
67279;DHT22;54193;53.746;10.058;2023-09-19T12:41:13;18.91;63.65
67279;DHT22;54193;53.746;10.058;2023-09-19T12:43:59;18.76;62.95
67279;DHT22;54193;53.746;10.058;2023-09-19T12:46:45;18.66;62.71
67279;DHT22;54193;53.746;10.058;2023-09-19T12:49:31;18.95;63.82
67279;DHT22;54193;53.746;10.058;2023-09-19T12:52:17;18.96;62.84
67279;DHT22;54193;53.746;10.058;2023-09-19T12:55:05;18.93;61.97
67279;DHT22;54193;53.746;10.058;2023-09-19T12:58:14;18.89;60.68
67279;DHT22;54193;53.746;10.058;2023-09-19T13:01:14;18.76;60.24
67279;DHT22;54193;53.746;10.058;2023-09-19T13:04:20;18.69;62.22
67279;DHT22;54193;53.746;10.058;2023-09-19T13:07:40;18.58;62.00
67279;DHT22;54193;53.746;10.058;2023-09-19T13:10:29;18.81;61.80
67279;DHT22;54193;53.746;10.058;2023-09-19T13:13:24;18.91;61.92
67279;DHT22;54193;53.746;10.058;2023-09-19T13:16:13;18.96;61.79
67279;DHT22;54193;53.746;10.058;2023-09-19T13:19:08;18.82;60.85
67279;DHT22;54193;53.746;10.058;2023-09-19T13:21:54;18.92;60.55
67279;DHT22;54193;53.746;10.058;2023-09-19T13:24:41;18.93;60.57
67279;DHT22;54193;53.746;10.058;2023-09-19T13:27:27;18.88;61.33
67279;DHT22;54193;53.746;10.058;2023-09-19T13:30:14;18.95;61.88
67279;DHT22;54193;53.746;10.058;2023-09-19T13:33:09;18.92;61.40
67279;DHT22;54193;53.746;10.058;2023-09-19T13:35:55;18.85;61.73
67279;DHT22;54193;53.746;10.058;2023-09-19T13:38:42;18.88;61.37
67279;DHT22;54193;53.746;10.058;2023-09-19T13:41:34;18.89;61.82
67279;DHT22;54193;53.746;10.058;2023-09-19T13:44:22;18.96;61.69
67279;DHT22;54193;53.746;10.058;2023-09-19T13:47:08;18.92;61.38
67279;DHT22;54193;53.746;10.058;2023-09-19T13:49:55;18.83;62.27
67279;DHT22;54193;53.746;10.058;2023-09-19T13:52:41;18.86;61.41
67279;DHT22;54193;53.746;10.058;2023-09-19T13:55:26;18.82;62.50
67279;DHT22;54193;53.746;10.058;2023-09-19T13:58:12;18.83;61.98
67279;DHT22;54193;53.746;10.058;2023-09-19T14:00:58;18.81;61.60
67279;DHT22;54193;53.746;10.058;2023-09-19T14:03:43;18.83;62.56
67279;DHT22;54193;53.746;10.058;2023-09-19T14:06:32;18.83;63.01
67279;DHT22;54193;53.746;10.058;2023-09-19T14:09:18;18.85;61.60
67279;DHT22;54193;53.746;10.058;2023-09-19T14:12:05;18.96;60.66
67279;DHT22;54193;53.746;10.058;2023-09-19T14:14:51;18.93;61.61
67279;DHT22;54193;53.746;10.058;2023-09-19T14:17:38;19.04;60.55
67279;DHT22;54193;53.746;10.058;2023-09-19T14:20:23;19.27;61.20
67279;DHT22;54193;53.746;10.058;2023-09-19T14:23:09;19.35;60.95
67279;DHT22;54193;53.746;10.058;2023-09-19T14:25:55;19.28;61.16
67279;DHT22;54193;53.746;10.058;2023-09-19T14:28:40;19.32;62.54
67279;DHT22;54193;53.746;10.058;2023-09-19T14:31:26;18.98;60.33
67279;DHT22;54193;53.746;10.058;2023-09-19T14:34:13;18.95;61.75
67279;DHT22;54193;53.746;10.058;2023-09-19T14:37:00;19.02;61.79
67279;DHT22;54193;53.746;10.058;2023-09-19T14:39:45;19.03;61.46
67279;DHT22;54193;53.746;10.058;2023-09-19T14:42:31;19.04;60.96
67279;DHT22;54193;53.746;10.058;2023-09-19T14:45:17;19.06;61.01
67279;DHT22;54193;53.746;10.058;2023-09-19T14:48:03;18.96;62.00
67279;DHT22;54193;53.746;10.058;2023-09-19T14:50:51;18.83;62.06
67279;DHT22;54193;53.746;10.058;2023-09-19T14:53:37;18.82;62.24
67279;DHT22;54193;53.746;10.058;2023-09-19T14:56:23;18.83;63.09
67279;DHT22;54193;53.746;10.058;2023-09-19T14:59:11;18.86;62.83
67279;DHT22;54193;53.746;10.058;2023-09-19T15:01:56;18.93;62.71
67279;DHT22;54193;53.746;10.058;2023-09-19T15:04:42;18.91;63.12
67279;DHT22;54193;53.746;10.058;2023-09-19T15:07:32;18.73;63.34
67279;DHT22;54193;53.746;10.058;2023-09-19T15:10:17;18.81;64.23
67279;DHT22;54193;53.746;10.058;2023-09-19T15:13:03;18.88;63.39
67279;DHT22;54193;53.746;10.058;2023-09-19T15:15:49;18.75;64.03
67279;DHT22;54193;53.746;10.058;2023-09-19T15:18:36;18.64;64.82
67279;DHT22;54193;53.746;10.058;2023-09-19T15:21:23;18.51;65.18
67279;DHT22;54193;53.746;10.058;2023-09-19T15:24:09;18.52;65.32
67279;DHT22;54193;53.746;10.058;2023-09-19T15:26:55;18.52;65.41
67279;DHT22;54193;53.746;10.058;2023-09-19T15:29:41;18.48;65.88
67279;DHT22;54193;53.746;10.058;2023-09-19T15:32:27;18.54;66.24
67279;DHT22;54193;53.746;10.058;2023-09-19T15:35:13;18.45;67.62
67279;DHT22;54193;53.746;10.058;2023-09-19T15:38:03;18.34;68.34
67279;DHT22;54193;53.746;10.058;2023-09-19T15:40:49;18.26;69.14
67279;DHT22;54193;53.746;10.058;2023-09-19T15:43:34;18.16;69.20
67279;DHT22;54193;53.746;10.058;2023-09-19T15:46:21;18.07;69.68
67279;DHT22;54193;53.746;10.058;2023-09-19T15:49:07;18.03;70.36
67279;DHT22;54193;53.746;10.058;2023-09-19T15:51:52;18.04;69.44
67279;DHT22;54193;53.746;10.058;2023-09-19T15:54:38;18.13;68.75
67279;DHT22;54193;53.746;10.058;2023-09-19T15:57:28;18.13;69.39
67279;DHT22;54193;53.746;10.058;2023-09-19T16:00:15;18.13;69.18
67279;DHT22;54193;53.746;10.058;2023-09-19T16:03:03;18.18;68.65
67279;DHT22;54193;53.746;10.058;2023-09-19T16:05:48;18.16;68.88
67279;DHT22;54193;53.746;10.058;2023-09-19T16:08:34;18.20;67.77
67279;DHT22;54193;53.746;10.058;2023-09-19T16:11:21;18.26;68.03
67279;DHT22;54193;53.746;10.058;2023-09-19T16:14:07;18.24;68.21
67279;DHT22;54193;53.746;10.058;2023-09-19T16:16:55;18.27;67.41
67279;DHT22;54193;53.746;10.058;2023-09-19T16:19:43;18.24;67.30
67279;DHT22;54193;53.746;10.058;2023-09-19T16:22:29;18.24;67.73
67279;DHT22;54193;53.746;10.058;2023-09-19T16:25:14;18.31;67.97
67279;DHT22;54193;53.746;10.058;2023-09-19T16:28:00;18.37;67.44
67279;DHT22;54193;53.746;10.058;2023-09-19T16:30:46;18.37;67.08
67279;DHT22;54193;53.746;10.058;2023-09-19T16:33:36;18.41;67.06
67279;DHT22;54193;53.746;10.058;2023-09-19T16:36:23;18.51;66.56
67279;DHT22;54193;53.746;10.058;2023-09-19T16:39:08;18.52;66.22
67279;DHT22;54193;53.746;10.058;2023-09-19T16:41:54;18.45;66.48
67279;DHT22;54193;53.746;10.058;2023-09-19T16:44:40;18.40;66.72
67279;DHT22;54193;53.746;10.058;2023-09-19T16:47:25;18.35;67.21
67279;DHT22;54193;53.746;10.058;2023-09-19T16:50:11;18.41;67.28
67279;DHT22;54193;53.746;10.058;2023-09-19T16:52:57;18.41;66.68
67279;DHT22;54193;53.746;10.058;2023-09-19T16:55:43;18.41;67.28
67279;DHT22;54193;53.746;10.058;2023-09-19T16:58:29;18.40;66.67
67279;DHT22;54193;53.746;10.058;2023-09-19T17:01:15;18.38;67.16
67279;DHT22;54193;53.746;10.058;2023-09-19T17:04:04;18.40;67.34
67279;DHT22;54193;53.746;10.058;2023-09-19T17:06:52;18.34;67.24
67279;DHT22;54193;53.746;10.058;2023-09-19T17:09:38;18.34;67.31
67279;DHT22;54193;53.746;10.058;2023-09-19T17:12:24;18.28;67.70
67279;DHT22;54193;53.746;10.058;2023-09-19T17:15:09;18.35;67.52
67279;DHT22;54193;53.746;10.058;2023-09-19T17:17:55;18.31;67.77
67279;DHT22;54193;53.746;10.058;2023-09-19T17:20:41;18.27;67.83
67279;DHT22;54193;53.746;10.058;2023-09-19T17:23:31;18.26;68.13
67279;DHT22;54193;53.746;10.058;2023-09-19T17:26:18;18.30;67.87
67279;DHT22;54193;53.746;10.058;2023-09-19T17:29:06;18.30;67.67
67279;DHT22;54193;53.746;10.058;2023-09-19T17:31:52;18.33;67.73
67279;DHT22;54193;53.746;10.058;2023-09-19T17:34:37;18.33;67.93
67279;DHT22;54193;53.746;10.058;2023-09-19T17:37:24;18.34;67.61
67279;DHT22;54193;53.746;10.058;2023-09-19T17:40:10;18.28;68.02
67279;DHT22;54193;53.746;10.058;2023-09-19T17:42:56;18.27;68.04
67279;DHT22;54193;53.746;10.058;2023-09-19T17:45:42;18.30;68.29
67279;DHT22;54193;53.746;10.058;2023-09-19T17:48:28;18.34;67.77
67279;DHT22;54193;53.746;10.058;2023-09-19T17:51:15;18.35;67.59